Argenta, Texas
Current Conditions -  °F | °C
As of 5:35 PM on Friday 28 Nov 2014 (Local Time) from KRBO Reporting Station
Clear Clear  
Wind Chill: 70°   Ceiling: Unl
Heat Index: 70°   Visibility: 10mi
Dew Point: 55°   Wind: 12mph
Humidity: 58%   Direction: 140°SE
Pressure: 30.14"   Gusts: NA
Location:  28.0654°N, 97.7489°W
Report Text: KRBO 282335Z AUTO 14010KT 10SM CLR 21/13 A3014 RMK AO2 T02130126
Loading
Personal Weather Stations






























Interactive Weather Map New forecast layout! Learn more

10-Day Weather Forecast

Advertisements
Track Severe Weather on mobile